sensor_id;sensor_type;location;lat;lon;timestamp;temperature;humidity
27072;DHT22;14613;46.308;25.288;2022-10-17T00:01:09;8.10;80.70
27072;DHT22;14613;46.308;25.288;2022-10-17T00:03:37;8.10;80.80
27072;DHT22;14613;46.308;25.288;2022-10-17T00:06:07;8.10;80.70
27072;DHT22;14613;46.308;25.288;2022-10-17T00:08:35;8.10;80.70
27072;DHT22;14613;46.308;25.288;2022-10-17T00:11:05;8.10;80.70
27072;DHT22;14613;46.308;25.288;2022-10-17T00:13:31;8.00;80.60
27072;DHT22;14613;46.308;25.288;2022-10-17T00:15:57;8.00;80.70
27072;DHT22;14613;46.308;25.288;2022-10-17T00:18:23;8.00;80.70
27072;DHT22;14613;46.308;25.288;2022-10-17T00:20:49;7.90;80.80
27072;DHT22;14613;46.308;25.288;2022-10-17T00:23:15;7.90;80.90
27072;DHT22;14613;46.308;25.288;2022-10-17T00:25:41;7.80;81.00
27072;DHT22;14613;46.308;25.288;2022-10-17T00:28:14;7.90;81.10
27072;DHT22;14613;46.308;25.288;2022-10-17T00:30:40;7.80;81.10
27072;DHT22;14613;46.308;25.288;2022-10-17T00:33:06;7.80;81.10
27072;DHT22;14613;46.308;25.288;2022-10-17T00:35:32;7.80;81.10
27072;DHT22;14613;46.308;25.288;2022-10-17T00:37:57;7.80;81.00
27072;DHT22;14613;46.308;25.288;2022-10-17T00:40:24;7.80;80.90
27072;DHT22;14613;46.308;25.288;2022-10-17T00:42:50;7.80;80.90
27072;DHT22;14613;46.308;25.288;2022-10-17T00:45:21;7.80;81.10
27072;DHT22;14613;46.308;25.288;2022-10-17T00:47:50;7.80;81.10
27072;DHT22;14613;46.308;25.288;2022-10-17T00:50:17;7.80;81.10
27072;DHT22;14613;46.308;25.288;2022-10-17T00:52:44;7.70;81.10
27072;DHT22;14613;46.308;25.288;2022-10-17T00:55:24;7.70;81.10
27072;DHT22;14613;46.308;25.288;2022-10-17T00:57:53;7.70;81.10
27072;DHT22;14613;46.308;25.288;2022-10-17T01:00:20;7.70;81.10
27072;DHT22;14613;46.308;25.288;2022-10-17T01:02:46;7.70;81.20
27072;DHT22;14613;46.308;25.288;2022-10-17T01:05:12;7.70;81.20
27072;DHT22;14613;46.308;25.288;2022-10-17T01:07:40;7.60;81.20
27072;DHT22;14613;46.308;25.288;2022-10-17T01:10:06;7.60;81.20
27072;DHT22;14613;46.308;25.288;2022-10-17T01:15:26;7.60;81.20
27072;DHT22;14613;46.308;25.288;2022-10-17T01:25:54;7.50;81.30
27072;DHT22;14613;46.308;25.288;2022-10-17T01:28:48;7.50;81.40
27072;DHT22;14613;46.308;25.288;2022-10-17T01:34:34;7.40;81.70
27072;DHT22;14613;46.308;25.288;2022-10-17T01:37:07;7.30;81.60
27072;DHT22;14613;46.308;25.288;2022-10-17T01:45:36;7.30;81.80
27072;DHT22;14613;46.308;25.288;2022-10-17T01:48:11;7.20;81.90
27072;DHT22;14613;46.308;25.288;2022-10-17T01:50:47;7.20;82.00
27072;DHT22;14613;46.308;25.288;2022-10-17T01:53:27;7.20;81.90
27072;DHT22;14613;46.308;25.288;2022-10-17T01:55:56;7.20;82.00
27072;DHT22;14613;46.308;25.288;2022-10-17T01:58:51;7.20;82.00
27072;DHT22;14613;46.308;25.288;2022-10-17T02:01:18;7.20;82.00
27072;DHT22;14613;46.308;25.288;2022-10-17T02:03:46;7.20;82.00
27072;DHT22;14613;46.308;25.288;2022-10-17T02:06:13;7.20;82.00
27072;DHT22;14613;46.308;25.288;2022-10-17T02:08:44;7.20;82.70
27072;DHT22;14613;46.308;25.288;2022-10-17T02:11:17;7.20;81.80
27072;DHT22;14613;46.308;25.288;2022-10-17T02:16:34;7.20;81.90
27072;DHT22;14613;46.308;25.288;2022-10-17T02:19:10;7.10;82.00
27072;DHT22;14613;46.308;25.288;2022-10-17T02:21:52;7.10;82.00
27072;DHT22;14613;46.308;25.288;2022-10-17T02:24:37;7.00;82.00
27072;DHT22;14613;46.308;25.288;2022-10-17T02:27:14;7.00;82.00
27072;DHT22;14613;46.308;25.288;2022-10-17T02:29:50;7.00;82.10
27072;DHT22;14613;46.308;25.288;2022-10-17T02:32:44;7.00;82.10
27072;DHT22;14613;46.308;25.288;2022-10-17T02:35:14;7.00;82.10
27072;DHT22;14613;46.308;25.288;2022-10-17T02:37:42;7.00;82.10
27072;DHT22;14613;46.308;25.288;2022-10-17T02:40:10;7.00;82.00
27072;DHT22;14613;46.308;25.288;2022-10-17T02:42:41;7.00;82.00
27072;DHT22;14613;46.308;25.288;2022-10-17T02:45:09;7.00;82.00
27072;DHT22;14613;46.308;25.288;2022-10-17T02:50:37;7.00;81.80
27072;DHT22;14613;46.308;25.288;2022-10-17T02:53:19;7.00;81.80
27072;DHT22;14613;46.308;25.288;2022-10-17T02:56:02;7.00;81.90
27072;DHT22;14613;46.308;25.288;2022-10-17T02:58:31;6.90;81.80
27072;DHT22;14613;46.308;25.288;2022-10-17T03:00:58;6.90;81.80
27072;DHT22;14613;46.308;25.288;2022-10-17T03:03:27;6.90;81.80
27072;DHT22;14613;46.308;25.288;2022-10-17T03:05:53;6.90;81.80
27072;DHT22;14613;46.308;25.288;2022-10-17T03:08:19;6.90;81.80
27072;DHT22;14613;46.308;25.288;2022-10-17T03:10:46;6.80;81.70
27072;DHT22;14613;46.308;25.288;2022-10-17T03:13:13;6.80;81.80
27072;DHT22;14613;46.308;25.288;2022-10-17T03:15:39;6.80;81.80
27072;DHT22;14613;46.308;25.288;2022-10-17T03:18:05;6.80;81.80
27072;DHT22;14613;46.308;25.288;2022-10-17T03:20:31;6.80;81.90
27072;DHT22;14613;46.308;25.288;2022-10-17T03:22:56;6.70;81.90
27072;DHT22;14613;46.308;25.288;2022-10-17T03:25:22;6.70;81.90
27072;DHT22;14613;46.308;25.288;2022-10-17T03:27:48;6.70;81.90
27072;DHT22;14613;46.308;25.288;2022-10-17T03:30:13;6.70;82.00
27072;DHT22;14613;46.308;25.288;2022-10-17T03:32:39;6.60;81.90
27072;DHT22;14613;46.308;25.288;2022-10-17T03:35:05;6.60;81.90
27072;DHT22;14613;46.308;25.288;2022-10-17T03:37:31;6.60;81.90
27072;DHT22;14613;46.308;25.288;2022-10-17T03:39:56;6.60;82.00
27072;DHT22;14613;46.308;25.288;2022-10-17T03:42:22;6.60;82.80
27072;DHT22;14613;46.308;25.288;2022-10-17T03:44:48;6.50;82.00
27072;DHT22;14613;46.308;25.288;2022-10-17T03:47:14;6.50;82.10
27072;DHT22;14613;46.308;25.288;2022-10-17T03:49:39;6.50;82.20
27072;DHT22;14613;46.308;25.288;2022-10-17T03:52:05;6.50;82.20
27072;DHT22;14613;46.308;25.288;2022-10-17T03:54:31;6.50;82.20
27072;DHT22;14613;46.308;25.288;2022-10-17T03:56:57;6.50;82.20
27072;DHT22;14613;46.308;25.288;2022-10-17T03:59:23;6.50;82.20
27072;DHT22;14613;46.308;25.288;2022-10-17T04:01:48;6.50;82.10
27072;DHT22;14613;46.308;25.288;2022-10-17T04:04:14;6.50;82.20
27072;DHT22;14613;46.308;25.288;2022-10-17T04:06:40;6.40;82.10
27072;DHT22;14613;46.308;25.288;2022-10-17T04:09:06;6.50;82.20
27072;DHT22;14613;46.308;25.288;2022-10-17T04:11:32;6.40;82.10
27072;DHT22;14613;46.308;25.288;2022-10-17T04:13:58;6.50;82.20
27072;DHT22;14613;46.308;25.288;2022-10-17T04:16:24;6.40;82.10
27072;DHT22;14613;46.308;25.288;2022-10-17T04:18:55;6.40;82.20
27072;DHT22;14613;46.308;25.288;2022-10-17T04:21:23;6.40;82.10
27072;DHT22;14613;46.308;25.288;2022-10-17T04:23:57;6.40;82.10
27072;DHT22;14613;46.308;25.288;2022-10-17T04:26:23;6.40;82.10
27072;DHT22;14613;46.308;25.288;2022-10-17T04:28:49;6.40;82.10
27072;DHT22;14613;46.308;25.288;2022-10-17T04:31:15;6.40;82.10
27072;DHT22;14613;46.308;25.288;2022-10-17T04:33:41;6.40;82.10
27072;DHT22;14613;46.308;25.288;2022-10-17T04:36:11;6.40;82.10
27072;DHT22;14613;46.308;25.288;2022-10-17T04:38:37;6.30;82.10
27072;DHT22;14613;46.308;25.288;2022-10-17T04:41:06;6.30;82.10
27072;DHT22;14613;46.308;25.288;2022-10-17T04:43:34;6.30;82.20
27072;DHT22;14613;46.308;25.288;2022-10-17T04:46:04;6.30;82.20
27072;DHT22;14613;46.308;25.288;2022-10-17T04:48:30;6.30;82.20
27072;DHT22;14613;46.308;25.288;2022-10-17T04:50:58;6.30;82.20
27072;DHT22;14613;46.308;25.288;2022-10-17T04:53:24;6.30;82.20
27072;DHT22;14613;46.308;25.288;2022-10-17T04:55:50;6.30;82.20
27072;DHT22;14613;46.308;25.288;2022-10-17T04:58:16;6.30;82.20
27072;DHT22;14613;46.308;25.288;2022-10-17T05:00:42;6.40;82.30
27072;DHT22;14613;46.308;25.288;2022-10-17T05:03:08;6.30;82.30
27072;DHT22;14613;46.308;25.288;2022-10-17T05:05:39;6.40;82.30
27072;DHT22;14613;46.308;25.288;2022-10-17T05:08:06;6.40;82.30
27072;DHT22;14613;46.308;25.288;2022-10-17T05:10:40;6.40;82.40
27072;DHT22;14613;46.308;25.288;2022-10-17T05:13:06;6.50;82.40
27072;DHT22;14613;46.308;25.288;2022-10-17T05:15:33;6.50;82.40
27072;DHT22;14613;46.308;25.288;2022-10-17T05:17:59;6.50;82.40
27072;DHT22;14613;46.308;25.288;2022-10-17T05:20:25;6.50;82.40
27072;DHT22;14613;46.308;25.288;2022-10-17T05:22:51;6.50;82.40
27072;DHT22;14613;46.308;25.288;2022-10-17T05:25:16;6.60;82.50
27072;DHT22;14613;46.308;25.288;2022-10-17T05:27:42;6.50;82.70
27072;DHT22;14613;46.308;25.288;2022-10-17T05:30:08;6.50;83.00
27072;DHT22;14613;46.308;25.288;2022-10-17T05:32:34;6.60;83.20
27072;DHT22;14613;46.308;25.288;2022-10-17T05:35:00;6.60;83.40
27072;DHT22;14613;46.308;25.288;2022-10-17T05:37:28;6.70;83.60
27072;DHT22;14613;46.308;25.288;2022-10-17T05:39:54;6.90;83.60
27072;DHT22;14613;46.308;25.288;2022-10-17T05:42:19;7.00;83.50
27072;DHT22;14613;46.308;25.288;2022-10-17T05:44:45;7.10;83.40
27072;DHT22;14613;46.308;25.288;2022-10-17T05:47:11;7.20;83.20
27072;DHT22;14613;46.308;25.288;2022-10-17T05:49:37;7.30;83.20
27072;DHT22;14613;46.308;25.288;2022-10-17T05:52:02;7.40;83.10
27072;DHT22;14613;46.308;25.288;2022-10-17T05:54:47;7.50;83.10
27072;DHT22;14613;46.308;25.288;2022-10-17T05:58:19;7.60;83.10
27072;DHT22;14613;46.308;25.288;2022-10-17T06:00:33;7.80;83.10
27072;DHT22;14613;46.308;25.288;2022-10-17T06:02:59;8.00;83.10
27072;DHT22;14613;46.308;25.288;2022-10-17T06:05:24;8.20;83.10
27072;DHT22;14613;46.308;25.288;2022-10-17T06:07:50;8.30;82.90
27072;DHT22;14613;46.308;25.288;2022-10-17T06:10:17;8.50;82.70
27072;DHT22;14613;46.308;25.288;2022-10-17T06:12:44;8.70;82.70
27072;DHT22;14613;46.308;25.288;2022-10-17T06:15:11;8.90;82.50
27072;DHT22;14613;46.308;25.288;2022-10-17T06:17:37;9.10;82.40
27072;DHT22;14613;46.308;25.288;2022-10-17T06:20:03;9.20;82.30
27072;DHT22;14613;46.308;25.288;2022-10-17T06:22:29;9.40;82.40
27072;DHT22;14613;46.308;25.288;2022-10-17T06:24:55;9.60;82.40
27072;DHT22;14613;46.308;25.288;2022-10-17T06:27:21;9.80;82.30
27072;DHT22;14613;46.308;25.288;2022-10-17T06:29:47;10.00;82.30
27072;DHT22;14613;46.308;25.288;2022-10-17T06:32:18;10.10;82.50
27072;DHT22;14613;46.308;25.288;2022-10-17T06:34:47;10.30;82.80
27072;DHT22;14613;46.308;25.288;2022-10-17T06:37:13;10.50;82.80
27072;DHT22;14613;46.308;25.288;2022-10-17T06:39:42;10.70;82.70
27072;DHT22;14613;46.308;25.288;2022-10-17T06:42:41;11.00;82.60
27072;DHT22;14613;46.308;25.288;2022-10-17T06:45:20;11.30;82.20
27072;DHT22;14613;46.308;25.288;2022-10-17T06:47:46;11.50;82.20
27072;DHT22;14613;46.308;25.288;2022-10-17T06:50:11;11.70;82.00
27072;DHT22;14613;46.308;25.288;2022-10-17T06:52:37;12.00;81.90
27072;DHT22;14613;46.308;25.288;2022-10-17T06:55:04;12.20;81.70
27072;DHT22;14613;46.308;25.288;2022-10-17T06:57:29;12.50;81.50
27072;DHT22;14613;46.308;25.288;2022-10-17T06:59:58;12.70;81.20
27072;DHT22;14613;46.308;25.288;2022-10-17T07:02:24;12.90;80.90
27072;DHT22;14613;46.308;25.288;2022-10-17T07:04:50;13.10;80.60
27072;DHT22;14613;46.308;25.288;2022-10-17T07:07:16;13.30;80.40
27072;DHT22;14613;46.308;25.288;2022-10-17T07:09:41;13.60;79.80
27072;DHT22;14613;46.308;25.288;2022-10-17T07:12:07;13.70;79.30
27072;DHT22;14613;46.308;25.288;2022-10-17T07:14:34;13.80;79.30
27072;DHT22;14613;46.308;25.288;2022-10-17T07:17:00;14.00;79.20
27072;DHT22;14613;46.308;25.288;2022-10-17T07:19:26;14.30;79.10
27072;DHT22;14613;46.308;25.288;2022-10-17T07:21:52;14.50;78.80
27072;DHT22;14613;46.308;25.288;2022-10-17T07:24:18;14.60;78.50
27072;DHT22;14613;46.308;25.288;2022-10-17T07:26:44;14.90;78.30
27072;DHT22;14613;46.308;25.288;2022-10-17T07:29:10;15.10;78.10
27072;DHT22;14613;46.308;25.288;2022-10-17T07:31:36;15.30;77.60
27072;DHT22;14613;46.308;25.288;2022-10-17T07:34:01;15.50;77.40
27072;DHT22;14613;46.308;25.288;2022-10-17T07:36:27;15.60;76.70
27072;DHT22;14613;46.308;25.288;2022-10-17T07:38:53;15.70;76.20
27072;DHT22;14613;46.308;25.288;2022-10-17T07:41:19;15.80;76.20
27072;DHT22;14613;46.308;25.288;2022-10-17T07:43:45;15.90;76.20
27072;DHT22;14613;46.308;25.288;2022-10-17T07:46:10;16.00;76.10
27072;DHT22;14613;46.308;25.288;2022-10-17T07:48:37;16.20;75.90
27072;DHT22;14613;46.308;25.288;2022-10-17T07:51:05;16.40;75.80
27072;DHT22;14613;46.308;25.288;2022-10-17T07:53:33;16.60;75.60
27072;DHT22;14613;46.308;25.288;2022-10-17T07:56:03;16.80;75.10
27072;DHT22;14613;46.308;25.288;2022-10-17T07:58:29;17.00;74.80
27072;DHT22;14613;46.308;25.288;2022-10-17T08:01:00;17.20;74.50
27072;DHT22;14613;46.308;25.288;2022-10-17T08:03:26;17.30;74.10
27072;DHT22;14613;46.308;25.288;2022-10-17T08:05:51;17.40;73.50
27072;DHT22;14613;46.308;25.288;2022-10-17T08:08:21;17.30;73.10
27072;DHT22;14613;46.308;25.288;2022-10-17T08:10:46;17.40;73.00
27072;DHT22;14613;46.308;25.288;2022-10-17T08:13:12;17.40;73.10
27072;DHT22;14613;46.308;25.288;2022-10-17T08:15:38;17.60;73.10
27072;DHT22;14613;46.308;25.288;2022-10-17T08:18:03;17.70;73.00
27072;DHT22;14613;46.308;25.288;2022-10-17T08:20:29;17.90;72.80
27072;DHT22;14613;46.308;25.288;2022-10-17T08:22:55;18.10;72.50
27072;DHT22;14613;46.308;25.288;2022-10-17T08:25:21;18.30;72.30
27072;DHT22;14613;46.308;25.288;2022-10-17T08:27:47;18.50;71.80
27072;DHT22;14613;46.308;25.288;2022-10-17T08:30:13;18.60;71.40
27072;DHT22;14613;46.308;25.288;2022-10-17T08:32:39;18.80;71.10
27072;DHT22;14613;46.308;25.288;2022-10-17T08:35:05;18.90;70.50
27072;DHT22;14613;46.308;25.288;2022-10-17T08:37:31;19.00;70.30
27072;DHT22;14613;46.308;25.288;2022-10-17T08:39:57;19.00;70.30
27072;DHT22;14613;46.308;25.288;2022-10-17T08:45:20;19.30;70.20
27072;DHT22;14613;46.308;25.288;2022-10-17T08:47:52;19.40;69.90
27072;DHT22;14613;46.308;25.288;2022-10-17T08:51:20;19.50;69.60
27072;DHT22;14613;46.308;25.288;2022-10-17T08:56:29;19.60;69.40
27072;DHT22;14613;46.308;25.288;2022-10-17T08:58:57;19.70;69.30
27072;DHT22;14613;46.308;25.288;2022-10-17T09:01:48;19.90;69.40
27072;DHT22;14613;46.308;25.288;2022-10-17T09:15:28;20.40;68.70
27072;DHT22;14613;46.308;25.288;2022-10-17T09:18:02;20.50;68.60
27072;DHT22;14613;46.308;25.288;2022-10-17T09:20:46;20.50;68.50
27072;DHT22;14613;46.308;25.288;2022-10-17T09:25:48;20.50;67.70
27072;DHT22;14613;46.308;25.288;2022-10-17T09:28:19;20.60;67.50
27072;DHT22;14613;46.308;25.288;2022-10-17T09:30:51;20.70;66.90
27072;DHT22;14613;46.308;25.288;2022-10-17T09:33:41;20.60;66.40
27072;DHT22;14613;46.308;25.288;2022-10-17T09:36:19;20.60;66.40
27072;DHT22;14613;46.308;25.288;2022-10-17T09:39:03;20.70;66.60
27072;DHT22;14613;46.308;25.288;2022-10-17T09:41:48;20.80;66.60
27072;DHT22;14613;46.308;25.288;2022-10-17T09:44:50;20.90;66.20
27072;DHT22;14613;46.308;25.288;2022-10-17T09:47:39;21.00;66.00
27072;DHT22;14613;46.308;25.288;2022-10-17T09:50:29;21.10;66.00
27072;DHT22;14613;46.308;25.288;2022-10-17T09:52:59;21.30;65.70
27072;DHT22;14613;46.308;25.288;2022-10-17T09:55:46;21.40;65.50
27072;DHT22;14613;46.308;25.288;2022-10-17T09:58:14;21.50;65.30
27072;DHT22;14613;46.308;25.288;2022-10-17T10:00:45;21.60;65.30
27072;DHT22;14613;46.308;25.288;2022-10-17T10:08:31;21.90;64.70
27072;DHT22;14613;46.308;25.288;2022-10-17T10:11:04;22.00;64.60
27072;DHT22;14613;46.308;25.288;2022-10-17T10:13:32;22.00;64.60
27072;DHT22;14613;46.308;25.288;2022-10-17T10:16:18;22.10;64.30
27072;DHT22;14613;46.308;25.288;2022-10-17T10:18:45;22.20;64.10
27072;DHT22;14613;46.308;25.288;2022-10-17T10:21:20;22.30;63.90
27072;DHT22;14613;46.308;25.288;2022-10-17T10:26:39;22.40;63.20
27072;DHT22;14613;46.308;25.288;2022-10-17T10:31:47;22.50;62.80
27072;DHT22;14613;46.308;25.288;2022-10-17T10:34:26;22.50;62.90
27072;DHT22;14613;46.308;25.288;2022-10-17T10:36:57;22.60;62.70
27072;DHT22;14613;46.308;25.288;2022-10-17T10:40:03;22.70;62.60
27072;DHT22;14613;46.308;25.288;2022-10-17T10:42:30;22.70;62.60
27072;DHT22;14613;46.308;25.288;2022-10-17T10:45:18;22.80;62.70
27072;DHT22;14613;46.308;25.288;2022-10-17T10:47:58;22.80;62.40
27072;DHT22;14613;46.308;25.288;2022-10-17T10:50:27;22.90;62.00
27072;DHT22;14613;46.308;25.288;2022-10-17T10:56:01;23.00;61.80
27072;DHT22;14613;46.308;25.288;2022-10-17T11:01:24;22.80;61.50
27072;DHT22;14613;46.308;25.288;2022-10-17T11:06:39;22.70;61.30
27072;DHT22;14613;46.308;25.288;2022-10-17T11:11:46;22.60;61.50
27072;DHT22;14613;46.308;25.288;2022-10-17T11:20:01;22.70;61.50
27072;DHT22;14613;46.308;25.288;2022-10-17T11:22:31;22.90;61.50
27072;DHT22;14613;46.308;25.288;2022-10-17T11:25:04;23.00;61.40
27072;DHT22;14613;46.308;25.288;2022-10-17T11:27:33;23.10;61.10
27072;DHT22;14613;46.308;25.288;2022-10-17T11:29:59;23.10;61.00
27072;DHT22;14613;46.308;25.288;2022-10-17T11:32:53;23.20;61.00
27072;DHT22;14613;46.308;25.288;2022-10-17T11:35:28;23.20;61.00
27072;DHT22;14613;46.308;25.288;2022-10-17T11:40:53;23.20;60.60
27072;DHT22;14613;46.308;25.288;2022-10-17T11:45:55;23.20;60.70
27072;DHT22;14613;46.308;25.288;2022-10-17T11:48:27;23.20;60.40
27072;DHT22;14613;46.308;25.288;2022-10-17T11:51:12;23.20;60.30
27072;DHT22;14613;46.308;25.288;2022-10-17T11:53:53;23.20;60.10
27072;DHT22;14613;46.308;25.288;2022-10-17T11:56:36;23.20;60.10
27072;DHT22;14613;46.308;25.288;2022-10-17T12:01:57;23.20;60.10
27072;DHT22;14613;46.308;25.288;2022-10-17T12:07:47;23.20;59.90
27072;DHT22;14613;46.308;25.288;2022-10-17T12:10:21;23.30;59.90
27072;DHT22;14613;46.308;25.288;2022-10-17T12:12:48;23.40;59.90
27072;DHT22;14613;46.308;25.288;2022-10-17T12:18:02;23.40;59.90
27072;DHT22;14613;46.308;25.288;2022-10-17T12:20:32;23.40;60.00
27072;DHT22;14613;46.308;25.288;2022-10-17T12:25:56;23.40;59.80
27072;DHT22;14613;46.308;25.288;2022-10-17T12:28:27;23.40;59.70
27072;DHT22;14613;46.308;25.288;2022-10-17T12:31:04;23.40;59.80
27072;DHT22;14613;46.308;25.288;2022-10-17T12:49:47;23.30;59.70
27072;DHT22;14613;46.308;25.288;2022-10-17T12:55:16;23.30;59.70
27072;DHT22;14613;46.308;25.288;2022-10-17T13:03:16;23.20;59.70
27072;DHT22;14613;46.308;25.288;2022-10-17T13:05:51;23.10;59.70
27072;DHT22;14613;46.308;25.288;2022-10-17T13:08:21;23.00;59.70
27072;DHT22;14613;46.308;25.288;2022-10-17T13:10:49;23.00;59.70
27072;DHT22;14613;46.308;25.288;2022-10-17T13:13:48;23.00;59.80
27072;DHT22;14613;46.308;25.288;2022-10-17T13:16:37;22.90;59.70
27072;DHT22;14613;46.308;25.288;2022-10-17T13:19:15;22.80;59.50
27072;DHT22;14613;46.308;25.288;2022-10-17T13:24:36;22.70;59.70
27072;DHT22;14613;46.308;25.288;2022-10-17T13:27:04;22.70;59.70
27072;DHT22;14613;46.308;25.288;2022-10-17T13:29:31;22.60;59.80
27072;DHT22;14613;46.308;25.288;2022-10-17T13:32:02;22.50;59.90
27072;DHT22;14613;46.308;25.288;2022-10-17T13:34:30;22.50;60.00
27072;DHT22;14613;46.308;25.288;2022-10-17T13:37:04;22.40;60.00
27072;DHT22;14613;46.308;25.288;2022-10-17T13:39:39;22.40;60.00
27072;DHT22;14613;46.308;25.288;2022-10-17T13:42:06;22.40;60.00
27072;DHT22;14613;46.308;25.288;2022-10-17T13:44:40;22.40;60.00
27072;DHT22;14613;46.308;25.288;2022-10-17T13:47:26;22.40;60.00
27072;DHT22;14613;46.308;25.288;2022-10-17T13:49:52;22.40;59.90
27072;DHT22;14613;46.308;25.288;2022-10-17T13:52:20;22.40;59.90
27072;DHT22;14613;46.308;25.288;2022-10-17T13:54:48;22.40;60.00
27072;DHT22;14613;46.308;25.288;2022-10-17T13:57:29;22.40;60.00
27072;DHT22;14613;46.308;25.288;2022-10-17T14:00:05;22.30;60.00
27072;DHT22;14613;46.308;25.288;2022-10-17T14:02:33;22.30;60.00
27072;DHT22;14613;46.308;25.288;2022-10-17T14:08:00;22.30;60.00
27072;DHT22;14613;46.308;25.288;2022-10-17T14:10:30;22.20;60.00
27072;DHT22;14613;46.308;25.288;2022-10-17T14:12:56;22.20;60.00
27072;DHT22;14613;46.308;25.288;2022-10-17T14:15:26;22.20;60.00
27072;DHT22;14613;46.308;25.288;2022-10-17T14:18:04;22.10;59.90
27072;DHT22;14613;46.308;25.288;2022-10-17T14:20:30;22.10;60.00
27072;DHT22;14613;46.308;25.288;2022-10-17T14:22:58;22.00;60.00
27072;DHT22;14613;46.308;25.288;2022-10-17T14:25:31;22.00;60.00
27072;DHT22;14613;46.308;25.288;2022-10-17T14:30:46;21.90;60.00
27072;DHT22;14613;46.308;25.288;2022-10-17T14:33:26;21.80;60.10
27072;DHT22;14613;46.308;25.288;2022-10-17T14:35:57;21.70;60.00
27072;DHT22;14613;46.308;25.288;2022-10-17T14:38:25;21.60;60.10
27072;DHT22;14613;46.308;25.288;2022-10-17T14:41:25;21.50;60.00
27072;DHT22;14613;46.308;25.288;2022-10-17T14:43:58;21.40;60.00
27072;DHT22;14613;46.308;25.288;2022-10-17T14:46:24;21.20;60.10
27072;DHT22;14613;46.308;25.288;2022-10-17T14:49:02;21.10;60.30
27072;DHT22;14613;46.308;25.288;2022-10-17T14:51:28;21.00;60.30
27072;DHT22;14613;46.308;25.288;2022-10-17T14:54:04;20.90;60.40
27072;DHT22;14613;46.308;25.288;2022-10-17T14:56:40;20.80;60.60
27072;DHT22;14613;46.308;25.288;2022-10-17T14:59:06;20.60;60.70
27072;DHT22;14613;46.308;25.288;2022-10-17T15:01:34;20.50;60.80
27072;DHT22;14613;46.308;25.288;2022-10-17T15:04:00;20.40;61.00
27072;DHT22;14613;46.308;25.288;2022-10-17T15:06:29;20.20;61.10
27072;DHT22;14613;46.308;25.288;2022-10-17T15:08:55;20.20;61.30
27072;DHT22;14613;46.308;25.288;2022-10-17T15:11:21;20.00;61.50
27072;DHT22;14613;46.308;25.288;2022-10-17T15:13:46;19.90;61.80
27072;DHT22;14613;46.308;25.288;2022-10-17T15:16:22;19.70;61.80
27072;DHT22;14613;46.308;25.288;2022-10-17T15:18:48;19.60;62.10
27072;DHT22;14613;46.308;25.288;2022-10-17T15:21:16;19.50;62.30
27072;DHT22;14613;46.308;25.288;2022-10-17T15:23:42;19.40;62.50
27072;DHT22;14613;46.308;25.288;2022-10-17T15:26:23;19.30;62.60
27072;DHT22;14613;46.308;25.288;2022-10-17T15:28:49;19.20;62.80
27072;DHT22;14613;46.308;25.288;2022-10-17T15:31:17;19.00;62.90
27072;DHT22;14613;46.308;25.288;2022-10-17T15:33:44;18.90;63.10
27072;DHT22;14613;46.308;25.288;2022-10-17T15:36:23;18.80;63.40
27072;DHT22;14613;46.308;25.288;2022-10-17T15:38:51;18.60;63.50
27072;DHT22;14613;46.308;25.288;2022-10-17T15:41:18;18.50;63.70
27072;DHT22;14613;46.308;25.288;2022-10-17T15:43:45;18.40;63.80
27072;DHT22;14613;46.308;25.288;2022-10-17T15:46:16;18.30;64.10
27072;DHT22;14613;46.308;25.288;2022-10-17T15:48:43;18.10;64.30
27072;DHT22;14613;46.308;25.288;2022-10-17T15:51:09;18.00;64.40
27072;DHT22;14613;46.308;25.288;2022-10-17T15:53:35;17.80;64.60
27072;DHT22;14613;46.308;25.288;2022-10-17T15:56:01;17.70;64.90
27072;DHT22;14613;46.308;25.288;2022-10-17T15:58:35;17.60;65.00
27072;DHT22;14613;46.308;25.288;2022-10-17T16:01:02;17.50;65.30
27072;DHT22;14613;46.308;25.288;2022-10-17T16:03:28;17.40;65.50
27072;DHT22;14613;46.308;25.288;2022-10-17T16:05:55;17.30;65.70
27072;DHT22;14613;46.308;25.288;2022-10-17T16:08:20;17.20;65.90
27072;DHT22;14613;46.308;25.288;2022-10-17T16:10:46;17.00;66.00
27072;DHT22;14613;46.308;25.288;2022-10-17T16:13:21;16.90;66.20
27072;DHT22;14613;46.308;25.288;2022-10-17T16:15:48;16.80;66.50
27072;DHT22;14613;46.308;25.288;2022-10-17T16:18:13;16.70;66.60
27072;DHT22;14613;46.308;25.288;2022-10-17T16:20:39;16.60;66.80
27072;DHT22;14613;46.308;25.288;2022-10-17T16:23:05;16.50;67.00
27072;DHT22;14613;46.308;25.288;2022-10-17T16:25:33;16.30;67.20
27072;DHT22;14613;46.308;25.288;2022-10-17T16:27:59;16.30;67.50
27072;DHT22;14613;46.308;25.288;2022-10-17T16:30:28;16.10;67.70
27072;DHT22;14613;46.308;25.288;2022-10-17T16:32:54;16.00;67.90
27072;DHT22;14613;46.308;25.288;2022-10-17T16:35:28;15.90;68.10
27072;DHT22;14613;46.308;25.288;2022-10-17T16:37:54;15.80;68.20
27072;DHT22;14613;46.308;25.288;2022-10-17T16:40:22;15.70;68.20
27072;DHT22;14613;46.308;25.288;2022-10-17T16:42:47;15.70;68.40
27072;DHT22;14613;46.308;25.288;2022-10-17T16:45:21;15.60;68.60
27072;DHT22;14613;46.308;25.288;2022-10-17T16:47:48;15.50;68.80
27072;DHT22;14613;46.308;25.288;2022-10-17T16:50:14;15.40;68.90
27072;DHT22;14613;46.308;25.288;2022-10-17T16:52:40;15.30;69.00
27072;DHT22;14613;46.308;25.288;2022-10-17T16:55:07;15.20;69.20
27072;DHT22;14613;46.308;25.288;2022-10-17T16:57:33;15.10;69.30
27072;DHT22;14613;46.308;25.288;2022-10-17T16:59:59;15.10;69.60
27072;DHT22;14613;46.308;25.288;2022-10-17T17:02:24;15.00;69.70
27072;DHT22;14613;46.308;25.288;2022-10-17T17:04:50;14.90;69.90
27072;DHT22;14613;46.308;25.288;2022-10-17T17:07:16;14.80;70.00
27072;DHT22;14613;46.308;25.288;2022-10-17T17:09:43;14.80;70.20
27072;DHT22;14613;46.308;25.288;2022-10-17T17:12:09;14.70;70.30
27072;DHT22;14613;46.308;25.288;2022-10-17T17:14:35;14.70;70.40
27072;DHT22;14613;46.308;25.288;2022-10-17T17:17:01;14.60;70.50
27072;DHT22;14613;46.308;25.288;2022-10-17T17:19:26;14.50;70.60
27072;DHT22;14613;46.308;25.288;2022-10-17T17:21:52;14.50;70.80
27072;DHT22;14613;46.308;25.288;2022-10-17T17:24:19;14.40;70.80
27072;DHT22;14613;46.308;25.288;2022-10-17T17:26:53;14.40;70.90
27072;DHT22;14613;46.308;25.288;2022-10-17T17:29:19;14.30;71.10
27072;DHT22;14613;46.308;25.288;2022-10-17T17:31:45;14.20;71.20
27072;DHT22;14613;46.308;25.288;2022-10-17T17:34:11;14.20;71.20
27072;DHT22;14613;46.308;25.288;2022-10-17T17:36:37;14.00;72.10
27072;DHT22;14613;46.308;25.288;2022-10-17T17:39:08;14.00;71.60
27072;DHT22;14613;46.308;25.288;2022-10-17T17:41:35;13.90;71.70
27072;DHT22;14613;46.308;25.288;2022-10-17T17:44:02;13.80;71.90